createdAt,value
2018-08-24T00:46:02.351Z,59.92
2018-08-24T00:51:05.674Z,60.35
2018-08-24T00:56:28.379Z,59.99
2018-08-24T02:33:37.953Z,62.34
2018-08-24T02:38:41.385Z,63.16
2018-08-24T02:43:44.718Z,63.06
2018-08-24T03:46:20.334Z,64.03
2018-08-24T03:51:23.656Z,64.36
2018-08-24T03:56:26.978Z,64.53
2018-08-24T04:35:56.573Z,64.17
2018-08-24T04:41:04.917Z,64.36
2018-08-24T04:46:19.959Z,64.67
2018-08-24T04:51:23.640Z,64.78
2018-08-24T04:56:29.528Z,64.36
2018-08-24T05:01:37.702Z,64.19
2018-08-24T05:06:55.633Z,63.65
2018-08-24T05:12:00.134Z,63.60
2018-08-24T05:17:09.420Z,63.42
2018-08-24T05:22:14.450Z,63.35
2018-08-24T05:27:20.387Z,63.70
2018-08-24T05:37:32.672Z,63.52
2018-08-24T05:42:36.002Z,63.55
2018-08-24T05:47:39.323Z,63.67
2018-08-24T05:52:42.643Z,63.57
2018-08-24T05:57:45.970Z,63.11
2018-08-24T06:02:49.303Z,64.11
2018-08-24T06:07:52.653Z,62.83
2018-08-24T06:12:55.982Z,63.01
2018-08-24T06:17:59.297Z,64.06
2018-08-24T06:23:02.614Z,64.29
2018-08-24T06:28:05.947Z,64.55
2018-08-24T07:01:55.441Z,69.53
2018-08-24T07:06:58.763Z,71.33
2018-08-24T07:12:02.087Z,70.06
2018-08-24T08:03:08.773Z,69.71
2018-08-24T08:08:12.110Z,69.86
2018-08-24T08:13:15.433Z,69.36
2018-08-24T09:04:21.135Z,67.01
2018-08-24T09:09:24.450Z,68.54
2018-08-24T09:14:27.766Z,70.25
2018-08-24T10:11:00.946Z,78.80
2018-08-24T11:02:04.940Z,77.67
2018-08-24T11:07:08.272Z,77.63
2018-08-24T11:12:12.378Z,77.52
2018-08-24T12:03:17.637Z,74.96
2018-08-24T12:08:20.993Z,74.75
2018-08-24T12:13:24.309Z,74.31
2018-08-24T13:04:29.072Z,67.50
2018-08-24T13:09:32.411Z,67.42
2018-08-24T13:14:35.738Z,67.31
2018-08-24T14:05:40.495Z,57.94
2018-08-24T14:10:44.585Z,56.77
2018-08-24T14:50:17.555Z,77.96
2018-08-24T14:55:20.930Z,77.01
2018-08-24T15:00:24.264Z,80.09
2018-08-24T15:05:27.594Z,80.27
2018-08-24T15:10:30.932Z,77.76
2018-08-24T15:15:34.280Z,78.64
2018-08-24T15:20:37.602Z,76.11
2018-08-24T15:25:40.935Z,74.51
2018-08-24T15:30:44.266Z,74.74
2018-08-24T15:35:47.588Z,72.40
2018-08-24T15:40:50.924Z,74.17
2018-08-24T15:45:54.260Z,75.60
2018-08-24T15:50:58.455Z,75.14
2018-08-24T15:56:01.795Z,74.23
2018-08-24T16:01:05.146Z,74.75
2018-08-24T16:06:13.824Z,73.80
2018-08-24T16:11:17.165Z,73.31
2018-08-24T16:16:20.565Z,73.52
2018-08-24T16:21:23.905Z,73.52
2018-08-24T16:26:28.007Z,74.06
2018-08-24T16:31:31.587Z,72.29
2018-08-24T16:36:35.275Z,71.52
2018-08-24T16:41:40.167Z,70.35
2018-08-24T16:46:50.714Z,70.65
2018-08-24T16:51:55.106Z,69.83
2018-08-24T16:56:58.590Z,69.28
2018-08-24T17:02:02.876Z,69.70
2018-08-24T17:07:06.906Z,70.01
2018-08-24T17:12:10.459Z,70.29
2018-08-24T17:17:14.045Z,70.57
2018-08-24T17:22:18.269Z,69.24
2018-08-24T17:27:21.618Z,71.17
2018-08-24T17:32:25.714Z,72.33
2018-08-24T17:37:29.100Z,72.72
2018-08-24T17:42:32.458Z,72.55
2018-08-24T17:47:36.576Z,72.06
2018-08-24T17:52:39.919Z,72.78
2018-08-24T17:57:44.020Z,72.63
2018-08-24T18:02:47.469Z,72.74
2018-08-24T18:07:50.811Z,73.02
2018-08-24T18:12:54.152Z,72.65
2018-08-24T18:17:57.514Z,72.88
2018-08-24T18:23:00.847Z,72.82
2018-08-24T18:28:03.743Z,72.62
2018-08-24T18:33:06.642Z,73.03
2018-08-24T18:38:09.660Z,73.64
2018-08-24T18:43:13.107Z,73.35
2018-08-24T18:48:17.260Z,74.03
2018-08-24T18:53:20.750Z,74.58
2018-08-24T18:58:24.417Z,74.12
2018-08-24T19:03:28.132Z,75.97
2018-08-24T19:08:31.963Z,74.31
2018-08-24T19:13:35.782Z,74.19
2018-08-24T19:24:11.891Z,75.28
2018-08-24T19:34:46.981Z,76.12
2018-08-24T19:39:50.642Z,75.64
2018-08-24T19:44:54.286Z,75.37
2018-08-24T19:49:57.885Z,74.97
2018-08-24T19:55:02.350Z,74.92
2018-08-24T20:00:07.905Z,75.03
2018-08-24T20:05:12.300Z,75.54
2018-08-24T20:10:16.453Z,75.00
2018-08-24T20:20:54.344Z,75.39
2018-08-24T20:25:57.679Z,75.32
2018-08-24T20:31:01.027Z,74.16
2018-08-24T20:36:14.928Z,72.84
2018-08-24T20:41:18.263Z,73.56
2018-08-24T20:46:21.977Z,73.30
2018-08-24T20:51:25.494Z,73.09
2018-08-24T20:56:28.829Z,72.88
2018-08-24T21:01:32.931Z,72.28
2018-08-24T21:06:53.899Z,72.44
2018-08-24T21:11:57.244Z,72.14
2018-08-24T21:17:00.592Z,71.97
2018-08-24T21:22:04.287Z,72.26
2018-08-24T21:27:07.627Z,72.61
2018-08-24T21:32:10.966Z,71.89
2018-08-24T21:37:14.859Z,71.73
2018-08-24T21:42:18.590Z,71.63
2018-08-24T21:47:21.928Z,71.32
2018-08-24T21:52:25.268Z,71.49
2018-08-24T21:57:28.607Z,71.95
2018-08-24T22:02:31.958Z,71.20
2018-08-24T22:07:35.311Z,70.61
2018-08-24T22:12:39.410Z,70.81
2018-08-24T22:17:42.742Z,70.61
2018-08-24T22:22:46.835Z,70.05
2018-08-24T22:27:50.641Z,70.14
2018-08-24T22:32:54.070Z,70.78
2018-08-24T22:37:57.398Z,70.59
2018-08-24T22:43:01.095Z,70.97
2018-08-24T22:48:04.546Z,70.48
2018-08-24T22:53:07.915Z,70.38
2018-08-24T22:58:11.244Z,70.28
2018-08-24T23:03:14.579Z,70.10
2018-08-24T23:08:17.915Z,70.08
2018-08-24T23:13:22.007Z,70.00
